KABR/ABR METAR and TAF weather

Enter ICAO airport designator
Station Type Date Time Source
KABR METAR 2022/06/27 08:53 UTC NOAA

KABR 270853Z AUTO 21006KT 10SM CLR 12/10 A3026 RMK AO2 SLP244 T01220100 56006


Station Type Date Time Source
KABR Decoded METAR 2022/06/27 08:53 UTC NOAA

ABERDEEN REGIONAL AIRPORT, SD, United States (KABR) 45-27N 098-25W 400M
Jun 27, 2022 - 04:53 AM EDT / 2022.06.27 0853 UTC
Wind: from the SSW (210 degrees) at 7 MPH (6 KT):0
Visibility: 10 mile(s):0
Sky conditions: clear
Temperature: 54.0 F (12.2 C)
Dew Point: 50.0 F (10.0 C)
Relative Humidity: 86%
Pressure (altimeter): 30.26 in. Hg (1024 hPa)
Pressure tendency: 0.02 inches (0.6 hPa) lower than three hours ago
ob: KABR 270853Z AUTO 21006KT 10SM CLR 12/10 A3026 RMK AO2 SLP244 T01220100 56006
cycle: 9

Station Type Date Time Source
KABR TAF 2022/06/27 06:30 UTC NOAA

TAF KABR 270527Z 2706/2806 23005KT P6SM SKC
FM271400 21010G17KT P6SM SKC
FM271800 20012G20KT P6SM SKC
FM272300 17010G16KT P6SM FEW100
FM280200 15010KT P6SM SCT050

Example: see airport list